sensor_id;sensor_type;location;lat;lon;timestamp;P1;durP1;ratioP1;P2;durP2;ratioP2
48522;SDS011;34315;50.150;11.070;2023-05-10T00:04:25;4.95;;;2.83;;
48522;SDS011;34315;50.150;11.070;2023-05-10T00:09:28;8.02;;;3.47;;
48522;SDS011;34315;50.150;11.070;2023-05-10T00:14:29;5.38;;;3.50;;
48522;SDS011;34315;50.150;11.070;2023-05-10T00:19:30;8.30;;;3.08;;
48522;SDS011;34315;50.150;11.070;2023-05-10T00:24:31;6.60;;;2.90;;
48522;SDS011;34315;50.150;11.070;2023-05-10T00:29:32;6.28;;;3.22;;
48522;SDS011;34315;50.150;11.070;2023-05-10T00:34:34;6.07;;;3.10;;
48522;SDS011;34315;50.150;11.070;2023-05-10T00:39:35;5.63;;;3.15;;
48522;SDS011;34315;50.150;11.070;2023-05-10T00:44:36;6.38;;;2.83;;
48522;SDS011;34315;50.150;11.070;2023-05-10T00:49:38;5.15;;;3.00;;
48522;SDS011;34315;50.150;11.070;2023-05-10T00:54:39;4.10;;;2.72;;
48522;SDS011;34315;50.150;11.070;2023-05-10T00:59:40;6.13;;;2.92;;
48522;SDS011;34315;50.150;11.070;2023-05-10T01:04:41;5.05;;;2.97;;
48522;SDS011;34315;50.150;11.070;2023-05-10T01:09:43;4.78;;;2.90;;
48522;SDS011;34315;50.150;11.070;2023-05-10T01:14:45;7.13;;;3.10;;
48522;SDS011;34315;50.150;11.070;2023-05-10T01:19:47;7.53;;;2.88;;
48522;SDS011;34315;50.150;11.070;2023-05-10T01:25:06;4.40;;;3.10;;
48522;SDS011;34315;50.150;11.070;2023-05-10T01:35:37;9.07;;;3.25;;
48522;SDS011;34315;50.150;11.070;2023-05-10T01:46:08;4.68;;;3.17;;
48522;SDS011;34315;50.150;11.070;2023-05-10T01:51:11;8.38;;;2.95;;
48522;SDS011;34315;50.150;11.070;2023-05-10T01:56:13;5.15;;;3.38;;
48522;SDS011;34315;50.150;11.070;2023-05-10T02:01:15;4.82;;;3.05;;
48522;SDS011;34315;50.150;11.070;2023-05-10T02:06:18;5.80;;;3.25;;
48522;SDS011;34315;50.150;11.070;2023-05-10T02:11:19;4.97;;;3.15;;
48522;SDS011;34315;50.150;11.070;2023-05-10T02:16:23;8.45;;;3.47;;
48522;SDS011;34315;50.150;11.070;2023-05-10T02:21:25;7.05;;;3.47;;
48522;SDS011;34315;50.150;11.070;2023-05-10T02:26:27;5.60;;;3.28;;
48522;SDS011;34315;50.150;11.070;2023-05-10T02:31:32;5.57;;;2.90;;
48522;SDS011;34315;50.150;11.070;2023-05-10T02:36:34;5.63;;;3.08;;
48522;SDS011;34315;50.150;11.070;2023-05-10T02:41:35;4.25;;;3.13;;
48522;SDS011;34315;50.150;11.070;2023-05-10T02:46:37;7.55;;;3.55;;
48522;SDS011;34315;50.150;11.070;2023-05-10T02:51:40;5.55;;;3.30;;
48522;SDS011;34315;50.150;11.070;2023-05-10T02:56:44;5.03;;;3.50;;
48522;SDS011;34315;50.150;11.070;2023-05-10T03:01:48;6.25;;;3.55;;
48522;SDS011;34315;50.150;11.070;2023-05-10T03:06:49;5.55;;;3.50;;
48522;SDS011;34315;50.150;11.070;2023-05-10T03:11:56;5.97;;;3.78;;
48522;SDS011;34315;50.150;11.070;2023-05-10T03:17:04;5.57;;;3.70;;
48522;SDS011;34315;50.150;11.070;2023-05-10T03:22:08;6.80;;;3.60;;
48522;SDS011;34315;50.150;11.070;2023-05-10T03:27:12;5.47;;;3.42;;
48522;SDS011;34315;50.150;11.070;2023-05-10T03:32:15;8.13;;;4.00;;
48522;SDS011;34315;50.150;11.070;2023-05-10T03:37:16;8.43;;;3.67;;
48522;SDS011;34315;50.150;11.070;2023-05-10T03:42:17;6.53;;;3.83;;
48522;SDS011;34315;50.150;11.070;2023-05-10T03:47:19;6.00;;;3.55;;
48522;SDS011;34315;50.150;11.070;2023-05-10T03:52:20;9.10;;;4.32;;
48522;SDS011;34315;50.150;11.070;2023-05-10T03:57:22;6.25;;;3.78;;
48522;SDS011;34315;50.150;11.070;2023-05-10T04:02:23;6.07;;;4.10;;
48522;SDS011;34315;50.150;11.070;2023-05-10T04:07:25;7.30;;;3.72;;
48522;SDS011;34315;50.150;11.070;2023-05-10T04:12:26;6.00;;;3.75;;
48522;SDS011;34315;50.150;11.070;2023-05-10T04:17:27;7.18;;;4.18;;
48522;SDS011;34315;50.150;11.070;2023-05-10T04:22:28;6.70;;;4.05;;
48522;SDS011;34315;50.150;11.070;2023-05-10T04:27:29;10.65;;;4.30;;
48522;SDS011;34315;50.150;11.070;2023-05-10T04:32:31;9.73;;;4.28;;
48522;SDS011;34315;50.150;11.070;2023-05-10T04:37:32;8.32;;;4.57;;
48522;SDS011;34315;50.150;11.070;2023-05-10T04:42:33;9.88;;;4.80;;
48522;SDS011;34315;50.150;11.070;2023-05-10T04:47:35;6.90;;;4.50;;
48522;SDS011;34315;50.150;11.070;2023-05-10T04:52:37;6.10;;;4.55;;
48522;SDS011;34315;50.150;11.070;2023-05-10T04:57:38;7.93;;;4.80;;
48522;SDS011;34315;50.150;11.070;2023-05-10T05:02:43;6.20;;;4.57;;
48522;SDS011;34315;50.150;11.070;2023-05-10T05:07:45;8.50;;;4.97;;
48522;SDS011;34315;50.150;11.070;2023-05-10T05:12:47;5.97;;;4.07;;
48522;SDS011;34315;50.150;11.070;2023-05-10T05:17:48;6.65;;;2.50;;
48522;SDS011;34315;50.150;11.070;2023-05-10T05:22:49;1.77;;;1.10;;
48522;SDS011;34315;50.150;11.070;2023-05-10T05:27:50;1.05;;;0.90;;
48522;SDS011;34315;50.150;11.070;2023-05-10T05:32:51;0.90;;;0.90;;
48522;SDS011;34315;50.150;11.070;2023-05-10T05:37:53;1.13;;;0.90;;
48522;SDS011;34315;50.150;11.070;2023-05-10T05:42:54;5.60;;;1.00;;
48522;SDS011;34315;50.150;11.070;2023-05-10T05:47:55;1.38;;;0.95;;
48522;SDS011;34315;50.150;11.070;2023-05-10T05:52:56;2.30;;;0.90;;
48522;SDS011;34315;50.150;11.070;2023-05-10T05:57:58;0.82;;;0.80;;
48522;SDS011;34315;50.150;11.070;2023-05-10T06:02:59;1.33;;;0.90;;
48522;SDS011;34315;50.150;11.070;2023-05-10T06:08:00;1.17;;;0.75;;
48522;SDS011;34315;50.150;11.070;2023-05-10T06:13:01;0.80;;;0.80;;
48522;SDS011;34315;50.150;11.070;2023-05-10T06:18:03;1.65;;;0.77;;
48522;SDS011;34315;50.150;11.070;2023-05-10T06:23:04;0.70;;;0.70;;
48522;SDS011;34315;50.150;11.070;2023-05-10T06:28:05;2.75;;;0.80;;
48522;SDS011;34315;50.150;11.070;2023-05-10T06:33:06;0.80;;;0.73;;
48522;SDS011;34315;50.150;11.070;2023-05-10T06:38:07;0.50;;;0.45;;
48522;SDS011;34315;50.150;11.070;2023-05-10T06:43:09;0.82;;;0.80;;
48522;SDS011;34315;50.150;11.070;2023-05-10T06:48:10;1.05;;;0.60;;
48522;SDS011;34315;50.150;11.070;2023-05-10T06:53:11;1.25;;;0.90;;
48522;SDS011;34315;50.150;11.070;2023-05-10T06:58:12;0.65;;;0.65;;
48522;SDS011;34315;50.150;11.070;2023-05-10T07:03:13;0.93;;;0.80;;
48522;SDS011;34315;50.150;11.070;2023-05-10T07:08:15;0.80;;;0.80;;
48522;SDS011;34315;50.150;11.070;2023-05-10T07:13:16;1.10;;;0.80;;
48522;SDS011;34315;50.150;11.070;2023-05-10T07:18:17;0.88;;;0.70;;
48522;SDS011;34315;50.150;11.070;2023-05-10T07:23:18;0.70;;;0.68;;
48522;SDS011;34315;50.150;11.070;2023-05-10T07:28:19;2.00;;;0.60;;
48522;SDS011;34315;50.150;11.070;2023-05-10T07:33:21;0.70;;;0.70;;
48522;SDS011;34315;50.150;11.070;2023-05-10T07:38:22;0.70;;;0.70;;
48522;SDS011;34315;50.150;11.070;2023-05-10T07:43:23;0.77;;;0.60;;
48522;SDS011;34315;50.150;11.070;2023-05-10T07:48:24;0.80;;;0.80;;
48522;SDS011;34315;50.150;11.070;2023-05-10T07:53:26;1.70;;;1.13;;
48522;SDS011;34315;50.150;11.070;2023-05-10T07:58:27;2.53;;;1.17;;
48522;SDS011;34315;50.150;11.070;2023-05-10T08:03:28;4.90;;;1.70;;
48522;SDS011;34315;50.150;11.070;2023-05-10T08:08:29;1.77;;;0.95;;
48522;SDS011;34315;50.150;11.070;2023-05-10T08:13:30;1.10;;;0.80;;
48522;SDS011;34315;50.150;11.070;2023-05-10T08:18:32;0.80;;;0.77;;
48522;SDS011;34315;50.150;11.070;2023-05-10T08:23:33;1.25;;;0.80;;
48522;SDS011;34315;50.150;11.070;2023-05-10T08:28:34;1.08;;;0.90;;
48522;SDS011;34315;50.150;11.070;2023-05-10T08:33:35;1.08;;;0.80;;
48522;SDS011;34315;50.150;11.070;2023-05-10T08:38:37;1.23;;;0.80;;
48522;SDS011;34315;50.150;11.070;2023-05-10T08:43:38;1.48;;;0.90;;
48522;SDS011;34315;50.150;11.070;2023-05-10T08:48:39;3.53;;;0.93;;
48522;SDS011;34315;50.150;11.070;2023-05-10T08:53:41;0.70;;;0.70;;
48522;SDS011;34315;50.150;11.070;2023-05-10T08:58:42;2.60;;;0.80;;
48522;SDS011;34315;50.150;11.070;2023-05-10T09:03:44;1.00;;;0.90;;
48522;SDS011;34315;50.150;11.070;2023-05-10T09:08:47;1.10;;;0.98;;
48522;SDS011;34315;50.150;11.070;2023-05-10T09:13:48;0.70;;;0.70;;
48522;SDS011;34315;50.150;11.070;2023-05-10T09:18:51;0.75;;;0.70;;
48522;SDS011;34315;50.150;11.070;2023-05-10T09:23:52;1.30;;;0.80;;
48522;SDS011;34315;50.150;11.070;2023-05-10T09:28:55;2.97;;;0.70;;
48522;SDS011;34315;50.150;11.070;2023-05-10T09:33:58;3.17;;;0.90;;
48522;SDS011;34315;50.150;11.070;2023-05-10T09:38:59;2.67;;;0.95;;
48522;SDS011;34315;50.150;11.070;2023-05-10T09:44:00;2.08;;;0.80;;
48522;SDS011;34315;50.150;11.070;2023-05-10T09:49:01;0.65;;;0.65;;
48522;SDS011;34315;50.150;11.070;2023-05-10T09:54:36;1.13;;;0.80;;
48522;SDS011;34315;50.150;11.070;2023-05-10T09:59:29;2.03;;;0.80;;
48522;SDS011;34315;50.150;11.070;2023-05-10T10:09:39;3.72;;;1.95;;
48522;SDS011;34315;50.150;11.070;2023-05-10T10:14:41;3.25;;;1.65;;
48522;SDS011;34315;50.150;11.070;2023-05-10T10:19:42;3.63;;;1.83;;
48522;SDS011;34315;50.150;11.070;2023-05-10T10:24:43;2.10;;;1.23;;
48522;SDS011;34315;50.150;11.070;2023-05-10T10:29:51;3.45;;;1.10;;
48522;SDS011;34315;50.150;11.070;2023-05-10T10:34:58;1.30;;;1.10;;
48522;SDS011;34315;50.150;11.070;2023-05-10T10:39:59;2.05;;;1.27;;
48522;SDS011;34315;50.150;11.070;2023-05-10T10:45:11;2.47;;;1.00;;
48522;SDS011;34315;50.150;11.070;2023-05-10T10:50:12;1.80;;;0.98;;
48522;SDS011;34315;50.150;11.070;2023-05-10T10:55:14;2.80;;;1.10;;
48522;SDS011;34315;50.150;11.070;2023-05-10T11:10:37;1.40;;;1.13;;
48522;SDS011;34315;50.150;11.070;2023-05-10T11:15:39;1.55;;;1.00;;
48522;SDS011;34315;50.150;11.070;2023-05-10T11:20:40;1.20;;;1.00;;
48522;SDS011;34315;50.150;11.070;2023-05-10T11:25:42;3.03;;;1.33;;
48522;SDS011;34315;50.150;11.070;2023-05-10T11:30:44;2.80;;;1.27;;
48522;SDS011;34315;50.150;11.070;2023-05-10T11:35:46;2.72;;;1.30;;
48522;SDS011;34315;50.150;11.070;2023-05-10T11:40:47;2.63;;;1.30;;
48522;SDS011;34315;50.150;11.070;2023-05-10T11:45:52;2.95;;;1.40;;
48522;SDS011;34315;50.150;11.070;2023-05-10T11:50:53;1.30;;;1.15;;
48522;SDS011;34315;50.150;11.070;2023-05-10T11:56:18;2.50;;;1.30;;
48522;SDS011;34315;50.150;11.070;2023-05-10T12:01:18;4.35;;;1.00;;
48522;SDS011;34315;50.150;11.070;2023-05-10T12:06:20;0.93;;;0.90;;
48522;SDS011;34315;50.150;11.070;2023-05-10T12:11:24;0.70;;;0.70;;
48522;SDS011;34315;50.150;11.070;2023-05-10T12:16:28;1.48;;;0.90;;
48522;SDS011;34315;50.150;11.070;2023-05-10T12:21:29;1.37;;;1.13;;
48522;SDS011;34315;50.150;11.070;2023-05-10T12:26:34;1.60;;;1.20;;
48522;SDS011;34315;50.150;11.070;2023-05-10T12:31:48;2.30;;;1.60;;
48522;SDS011;34315;50.150;11.070;2023-05-10T12:36:53;2.97;;;1.40;;
48522;SDS011;34315;50.150;11.070;2023-05-10T12:41:55;3.05;;;1.38;;
48522;SDS011;34315;50.150;11.070;2023-05-10T12:46:56;3.72;;;1.60;;
48522;SDS011;34315;50.150;11.070;2023-05-10T12:51:57;3.33;;;1.60;;
48522;SDS011;34315;50.150;11.070;2023-05-10T12:56:58;2.80;;;1.55;;
48522;SDS011;34315;50.150;11.070;2023-05-10T13:01:59;3.42;;;2.00;;
48522;SDS011;34315;50.150;11.070;2023-05-10T13:07:01;4.32;;;2.22;;
48522;SDS011;34315;50.150;11.070;2023-05-10T13:12:02;4.53;;;2.30;;
48522;SDS011;34315;50.150;11.070;2023-05-10T13:17:03;2.97;;;2.20;;
48522;SDS011;34315;50.150;11.070;2023-05-10T13:22:04;3.13;;;2.10;;
48522;SDS011;34315;50.150;11.070;2023-05-10T13:27:06;5.10;;;2.22;;
48522;SDS011;34315;50.150;11.070;2023-05-10T13:32:07;3.63;;;2.13;;
48522;SDS011;34315;50.150;11.070;2023-05-10T13:37:08;3.50;;;2.08;;
48522;SDS011;34315;50.150;11.070;2023-05-10T13:42:09;3.55;;;1.67;;
48522;SDS011;34315;50.150;11.070;2023-05-10T13:47:10;3.38;;;2.00;;
48522;SDS011;34315;50.150;11.070;2023-05-10T13:52:11;2.95;;;1.70;;
48522;SDS011;34315;50.150;11.070;2023-05-10T13:57:13;2.50;;;1.70;;
48522;SDS011;34315;50.150;11.070;2023-05-10T14:02:14;3.22;;;2.08;;
48522;SDS011;34315;50.150;11.070;2023-05-10T14:07:15;4.75;;;2.78;;
48522;SDS011;34315;50.150;11.070;2023-05-10T14:12:16;2.72;;;2.15;;
48522;SDS011;34315;50.150;11.070;2023-05-10T14:17:17;3.53;;;2.05;;
48522;SDS011;34315;50.150;11.070;2023-05-10T14:22:19;4.50;;;2.83;;
48522;SDS011;34315;50.150;11.070;2023-05-10T14:27:20;3.38;;;2.30;;
48522;SDS011;34315;50.150;11.070;2023-05-10T14:32:21;4.75;;;2.22;;
48522;SDS011;34315;50.150;11.070;2023-05-10T14:37:22;3.97;;;2.00;;
48522;SDS011;34315;50.150;11.070;2023-05-10T14:42:23;2.65;;;1.60;;
48522;SDS011;34315;50.150;11.070;2023-05-10T14:47:24;1.67;;;1.48;;
48522;SDS011;34315;50.150;11.070;2023-05-10T14:52:26;3.28;;;1.80;;
48522;SDS011;34315;50.150;11.070;2023-05-10T14:57:27;2.38;;;1.20;;
48522;SDS011;34315;50.150;11.070;2023-05-10T15:02:30;2.00;;;1.50;;
48522;SDS011;34315;50.150;11.070;2023-05-10T15:07:32;2.55;;;1.83;;
48522;SDS011;34315;50.150;11.070;2023-05-10T15:12:33;5.38;;;1.70;;
48522;SDS011;34315;50.150;11.070;2023-05-10T15:17:34;2.28;;;1.40;;
48522;SDS011;34315;50.150;11.070;2023-05-10T15:22:35;2.42;;;1.50;;
48522;SDS011;34315;50.150;11.070;2023-05-10T15:27:36;3.55;;;1.98;;
48522;SDS011;34315;50.150;11.070;2023-05-10T15:32:37;3.45;;;1.80;;
48522;SDS011;34315;50.150;11.070;2023-05-10T15:37:40;7.75;;;2.10;;
48522;SDS011;34315;50.150;11.070;2023-05-10T15:42:41;6.43;;;1.95;;
48522;SDS011;34315;50.150;11.070;2023-05-10T15:47:42;5.53;;;1.50;;
48522;SDS011;34315;50.150;11.070;2023-05-10T15:52:44;7.30;;;1.70;;
48522;SDS011;34315;50.150;11.070;2023-05-10T15:57:45;3.70;;;1.40;;
48522;SDS011;34315;50.150;11.070;2023-05-10T16:02:48;3.38;;;1.20;;
48522;SDS011;34315;50.150;11.070;2023-05-10T16:07:52;5.13;;;1.40;;
48522;SDS011;34315;50.150;11.070;2023-05-10T16:12:53;4.13;;;1.20;;
48522;SDS011;34315;50.150;11.070;2023-05-10T16:17:54;6.78;;;2.60;;
48522;SDS011;34315;50.150;11.070;2023-05-10T16:22:56;5.57;;;2.20;;
48522;SDS011;34315;50.150;11.070;2023-05-10T16:27:57;4.28;;;2.00;;
48522;SDS011;34315;50.150;11.070;2023-05-10T16:32:59;3.08;;;1.30;;
48522;SDS011;34315;50.150;11.070;2023-05-10T16:38:00;5.53;;;2.00;;
48522;SDS011;34315;50.150;11.070;2023-05-10T16:43:01;3.85;;;1.40;;
48522;SDS011;34315;50.150;11.070;2023-05-10T16:48:03;7.07;;;2.17;;
48522;SDS011;34315;50.150;11.070;2023-05-10T16:53:04;10.63;;;6.00;;
48522;SDS011;34315;50.150;11.070;2023-05-10T16:58:05;5.05;;;2.70;;
48522;SDS011;34315;50.150;11.070;2023-05-10T17:03:06;3.60;;;1.85;;
48522;SDS011;34315;50.150;11.070;2023-05-10T17:08:08;3.13;;;1.70;;
48522;SDS011;34315;50.150;11.070;2023-05-10T17:13:09;2.25;;;1.35;;
48522;SDS011;34315;50.150;11.070;2023-05-10T17:18:10;3.95;;;1.83;;
48522;SDS011;34315;50.150;11.070;2023-05-10T17:23:11;3.45;;;1.58;;
48522;SDS011;34315;50.150;11.070;2023-05-10T17:28:12;3.17;;;1.38;;
48522;SDS011;34315;50.150;11.070;2023-05-10T17:33:13;4.80;;;1.52;;
48522;SDS011;34315;50.150;11.070;2023-05-10T17:38:15;3.13;;;1.48;;
48522;SDS011;34315;50.150;11.070;2023-05-10T17:43:16;3.05;;;1.55;;
48522;SDS011;34315;50.150;11.070;2023-05-10T17:48:17;3.30;;;1.60;;
48522;SDS011;34315;50.150;11.070;2023-05-10T17:53:18;3.33;;;1.80;;
48522;SDS011;34315;50.150;11.070;2023-05-10T17:58:19;4.80;;;2.28;;
48522;SDS011;34315;50.150;11.070;2023-05-10T18:03:20;2.88;;;1.63;;
48522;SDS011;34315;50.150;11.070;2023-05-10T18:08:21;4.57;;;1.83;;
48522;SDS011;34315;50.150;11.070;2023-05-10T18:13:26;3.97;;;1.80;;
48522;SDS011;34315;50.150;11.070;2023-05-10T18:18:27;3.80;;;1.75;;
48522;SDS011;34315;50.150;11.070;2023-05-10T18:23:28;2.05;;;1.40;;
48522;SDS011;34315;50.150;11.070;2023-05-10T18:28:29;5.25;;;1.80;;
48522;SDS011;34315;50.150;11.070;2023-05-10T18:33:30;3.90;;;2.08;;
48522;SDS011;34315;50.150;11.070;2023-05-10T18:38:32;5.65;;;1.70;;
48522;SDS011;34315;50.150;11.070;2023-05-10T18:43:33;3.80;;;1.90;;
48522;SDS011;34315;50.150;11.070;2023-05-10T18:48:34;6.30;;;2.17;;
48522;SDS011;34315;50.150;11.070;2023-05-10T18:53:35;5.07;;;2.17;;
48522;SDS011;34315;50.150;11.070;2023-05-10T18:58:36;4.93;;;1.77;;
48522;SDS011;34315;50.150;11.070;2023-05-10T19:03:38;3.25;;;1.85;;
48522;SDS011;34315;50.150;11.070;2023-05-10T19:08:39;4.78;;;2.40;;
48522;SDS011;34315;50.150;11.070;2023-05-10T19:13:40;4.03;;;2.10;;
48522;SDS011;34315;50.150;11.070;2023-05-10T19:18:42;4.30;;;2.40;;
48522;SDS011;34315;50.150;11.070;2023-05-10T19:23:43;8.80;;;4.18;;
48522;SDS011;34315;50.150;11.070;2023-05-10T19:28:44;8.85;;;4.47;;
48522;SDS011;34315;50.150;11.070;2023-05-10T19:33:46;8.15;;;4.00;;
48522;SDS011;34315;50.150;11.070;2023-05-10T19:38:47;6.20;;;3.97;;
48522;SDS011;34315;50.150;11.070;2023-05-10T19:43:48;5.00;;;3.42;;
48522;SDS011;34315;50.150;11.070;2023-05-10T19:48:49;6.30;;;3.95;;
48522;SDS011;34315;50.150;11.070;2023-05-10T19:53:50;5.75;;;3.80;;
48522;SDS011;34315;50.150;11.070;2023-05-10T19:58:51;5.07;;;3.40;;
48522;SDS011;34315;50.150;11.070;2023-05-10T20:03:53;5.53;;;3.20;;
48522;SDS011;34315;50.150;11.070;2023-05-10T20:08:54;7.20;;;2.95;;
48522;SDS011;34315;50.150;11.070;2023-05-10T20:13:55;6.75;;;3.65;;
48522;SDS011;34315;50.150;11.070;2023-05-10T20:18:56;5.82;;;2.40;;
48522;SDS011;34315;50.150;11.070;2023-05-10T20:23:58;3.20;;;2.13;;
48522;SDS011;34315;50.150;11.070;2023-05-10T20:28:59;5.43;;;2.10;;
48522;SDS011;34315;50.150;11.070;2023-05-10T20:34:00;6.60;;;2.80;;
48522;SDS011;34315;50.150;11.070;2023-05-10T20:39:01;7.57;;;2.50;;
48522;SDS011;34315;50.150;11.070;2023-05-10T20:44:02;6.22;;;2.63;;
48522;SDS011;34315;50.150;11.070;2023-05-10T20:49:06;7.68;;;2.55;;
48522;SDS011;34315;50.150;11.070;2023-05-10T20:54:08;9.70;;;4.93;;
48522;SDS011;34315;50.150;11.070;2023-05-10T20:59:09;6.72;;;4.45;;
48522;SDS011;34315;50.150;11.070;2023-05-10T21:04:10;9.35;;;4.50;;
48522;SDS011;34315;50.150;11.070;2023-05-10T21:09:11;6.10;;;3.30;;
48522;SDS011;34315;50.150;11.070;2023-05-10T21:14:12;7.07;;;4.15;;
48522;SDS011;34315;50.150;11.070;2023-05-10T21:19:13;6.07;;;4.28;;
48522;SDS011;34315;50.150;11.070;2023-05-10T21:24:16;6.63;;;3.78;;
48522;SDS011;34315;50.150;11.070;2023-05-10T21:29:18;5.13;;;3.00;;
48522;SDS011;34315;50.150;11.070;2023-05-10T21:34:19;5.55;;;3.30;;
48522;SDS011;34315;50.150;11.070;2023-05-10T21:39:20;3.92;;;2.80;;
48522;SDS011;34315;50.150;11.070;2023-05-10T21:44:21;4.45;;;2.67;;
48522;SDS011;34315;50.150;11.070;2023-05-10T21:49:22;4.13;;;2.80;;
48522;SDS011;34315;50.150;11.070;2023-05-10T21:54:24;5.50;;;3.00;;
48522;SDS011;34315;50.150;11.070;2023-05-10T21:59:25;5.85;;;3.20;;
48522;SDS011;34315;50.150;11.070;2023-05-10T22:04:26;7.75;;;2.53;;
48522;SDS011;34315;50.150;11.070;2023-05-10T22:09:27;3.83;;;2.67;;
48522;SDS011;34315;50.150;11.070;2023-05-10T22:14:29;5.15;;;2.80;;
48522;SDS011;34315;50.150;11.070;2023-05-10T22:19:30;5.03;;;2.60;;
48522;SDS011;34315;50.150;11.070;2023-05-10T22:24:31;4.18;;;2.83;;
48522;SDS011;34315;50.150;11.070;2023-05-10T22:29:32;4.20;;;2.70;;
48522;SDS011;34315;50.150;11.070;2023-05-10T22:34:33;4.28;;;2.67;;
48522;SDS011;34315;50.150;11.070;2023-05-10T22:39:35;4.22;;;3.00;;
48522;SDS011;34315;50.150;11.070;2023-05-10T22:44:36;8.77;;;3.33;;
48522;SDS011;34315;50.150;11.070;2023-05-10T22:49:37;5.38;;;3.28;;
48522;SDS011;34315;50.150;11.070;2023-05-10T22:54:38;6.90;;;3.67;;
48522;SDS011;34315;50.150;11.070;2023-05-10T22:59:40;4.93;;;3.20;;
48522;SDS011;34315;50.150;11.070;2023-05-10T23:04:42;4.47;;;3.15;;
48522;SDS011;34315;50.150;11.070;2023-05-10T23:09:43;4.82;;;3.17;;
48522;SDS011;34315;50.150;11.070;2023-05-10T23:14:44;5.53;;;3.53;;
48522;SDS011;34315;50.150;11.070;2023-05-10T23:19:46;5.82;;;3.00;;
48522;SDS011;34315;50.150;11.070;2023-05-10T23:24:47;4.95;;;3.05;;
48522;SDS011;34315;50.150;11.070;2023-05-10T23:29:48;5.95;;;3.05;;
48522;SDS011;34315;50.150;11.070;2023-05-10T23:34:55;4.80;;;3.13;;
48522;SDS011;34315;50.150;11.070;2023-05-10T23:39:56;5.00;;;3.40;;
48522;SDS011;34315;50.150;11.070;2023-05-10T23:44:57;10.00;;;4.07;;
48522;SDS011;34315;50.150;11.070;2023-05-10T23:49:58;7.60;;;3.63;;
48522;SDS011;34315;50.150;11.070;2023-05-10T23:54:59;14.25;;;3.80;;
